Latest Weather Observations for Cunderdin Airport

IDW60801

Issued at 2:33 pm WST Wednesday 26 February 2020 (issued every 10 minutes, with the page automatically refreshed every 10 minutes)

About weather observations | Map of weather stations | Latest weather observations for WA | Other Formats
Station Details ID: 010286 Name: CUNDERDIN AIRFIELD Lat: -31.62 Lon: 117.22 Height: 216.7 m
Data from the previous 72 hours. | See also: Recent months at Cunderdin Airport
Date/Time
WST
Temp
°C
App
Temp
°C
Dew
Point
°C
Rel
Hum
%
Delta-T
°C
Wind Press
QNH
hPa
Press
MSL
hPa
Rain since
9am
mm
Dir  Spd
km/h
Gust
km/h
Spd
kts
Gust
kts
26/02:30pm 22.7 23.9 21.5 93 0.8 ENE 17 20 9 11 1016.6 1015.4 5.6
26/02:00pm 22.3 23.3 21.1 93 0.8 E 17 20 9 11 1017.4 1016.2 5.6
26/01:30pm 21.9 23.7 21.2 96 0.5 ENE 13 22 7 12 1017.6 1016.4 5.4
26/01:11pm 21.6 23.3 20.9 96 0.5 E 13 17 7 9 1018.0 1016.8 4.6
26/01:00pm 21.6 23.9 20.6 94 0.7 ESE 9 15 5 8 1018.2 1017.0 3.6
26/12:31pm 21.9 23.5 20.7 93 0.8 NW 13 17 7 9 1018.8 1017.7 2.0
26/12:30pm 21.9 23.4 20.5 92 0.9 NW 13 17 7 9 1018.8 1017.7 2.0
26/12:24pm 22.0 23.5 20.5 91 1.0 NNE 13 20 7 11 1018.8 1017.7 2.0
26/12:00pm 21.8 22.4 20.3 91 1.0 E 17 30 9 16 1016.8 1015.6 2.0
26/11:30am 21.2 19.5 19.8 92 0.9 ENE 28 39 15 21 1015.9 1014.7 1.8
26/11:27am 21.2 20.0 20.0 93 0.8 E 26 33 14 18 1016.2 1015.0 1.8
26/11:17am 21.3 22.1 19.8 91 1.0 ESE 15 22 8 12 1016.9 1015.7 1.8
26/11:00am 22.1 22.7 19.5 85 1.7 SW 15 24 8 13 1018.9 1017.8 0.0
26/10:56am 22.1 23.0 19.3 84 1.8 S 13 20 7 11 1018.7 1017.6 0.0
26/10:30am 22.2 22.0 19.7 86 1.6 SE 20 28 11 15 1016.7 1015.5 0.0
26/10:00am 22.5 23.0 20.0 86 1.6 ESE 17 26 9 14 1016.8 1015.6 0.0
26/09:30am 21.7 21.1 19.8 89 1.2 ESE 22 35 12 19 1016.1 1014.9 0.0
26/09:19am 21.8 21.5 20.3 91 1.0 ESE 22 32 12 17 1016.3 1015.1 0.0
26/09:05am 20.8 18.2 19.6 93 0.8 E 32 50 17 27 1015.9 1014.7 0.0
26/09:00am 20.2 16.0 18.9 92 0.8 E 39 52 21 28 1015.3 1014.1 32.6
26/08:59am 20.3 16.2 19.1 93 0.8 E 39 52 21 28 1015.2 1014.0 32.6
26/08:53am 20.3 18.1 19.5 95 0.5 E 30 50 16 27 1015.2 1014.0 32.6
26/08:50am 20.1 19.4 19.4 96 0.4 E 22 37 12 20 1015.8 1014.6 32.6
26/08:30am 19.1 20.6 18.1 94 0.6 SE 7 15 4 8 1017.8 1016.6 32.4
26/08:11am 19.2 18.9 18.2 94 0.6 ENE 17 24 9 13 1017.3 1016.1 31.6
26/08:00am 19.2 18.4 17.9 92 0.8 E 19 28 10 15 1017.0 1015.8 31.6
26/07:30am 18.9 17.5 17.9 94 0.6 ESE 22 37 12 20 1015.2 1014.0 31.6
26/07:00am 18.7 17.2 17.7 94 0.6 E 22 33 12 18 1015.6 1014.4 31.6
26/06:30am 18.4 15.6 17.4 94 0.6 SE 28 37 15 20 1015.4 1014.2 31.6
26/06:00am 18.4 17.8 17.6 95 0.5 SSE 17 22 9 12 1016.5 1015.3 31.4
26/05:41am 18.3 18.5 17.7 96 0.4 E 13 26 7 14 1016.5 1015.3 31.2
26/05:30am 18.3 16.0 17.7 96 0.4 E 26 37 14 20 1015.4 1014.2 31.2
26/05:26am 18.2 15.5 17.6 96 0.4 E 28 37 15 20 1015.3 1014.1 31.2
26/05:21am 18.3 17.1 17.5 95 0.5 ESE 20 37 11 20 1015.1 1013.9 30.2
26/05:05am 18.4 16.8 17.4 94 0.6 ENE 22 33 12 18 1016.1 1014.9 28.8
26/05:00am 18.6 18.3 17.3 92 0.8 E 15 28 8 15 1016.4 1015.2 27.2
26/04:54am 18.8 18.4 17.1 90 1.0 E 15 22 8 12 1016.9 1015.7 26.2
26/04:30am 18.7 17.6 17.2 91 0.9 ESE 19 24 10 13 1014.9 1013.7 26.2
26/04:00am 18.8 18.6 17.5 92 0.8 ESE 15 22 8 12 1015.4 1014.2 26.2
26/03:30am 18.8 17.8 17.6 93 0.7 ESE 19 26 10 14 1015.1 1013.9 26.2
26/03:20am 18.7 17.6 17.7 94 0.6 E 20 30 11 16 1015.2 1014.0 26.2
26/03:00am 18.7 19.5 17.2 91 0.9 E 9 30 5 16 1014.9 1013.7 25.4
26/02:59am 19.0 20.2 17.3 90 1.0 ENE 7 24 4 13 1015.4 1014.2 24.4
26/02:30am 19.4 18.1 17.2 87 1.4 ESE 20 32 11 17 1014.8 1013.6 20.8
26/02:00am 19.4 18.3 17.4 88 1.2 ESE 19 30 10 16 1014.9 1013.7 20.8
26/01:30am 19.6 18.4 17.4 87 1.4 ESE 20 28 11 15 1015.3 1014.1 20.8
26/01:00am 20.0 19.1 17.8 87 1.4 ESE 19 30 10 16 1015.5 1014.3 20.8
26/12:30am 20.2 18.7 17.8 86 1.5 ESE 22 35 12 19 1015.5 1014.3 20.8
26/12:00am 20.7 18.5 17.9 84 1.7 ESE 26 39 14 21 1015.7 1014.5 20.8
 
Date/Time
WST
Temp
°C
App
Temp
°C
Dew
Point
°C
Rel
Hum
%
Delta-T
°C
Wind Press
QNH
hPa
Press
MSL
hPa
Rain since
9am
mm
Dir  Spd
km/h
Gust
km/h
Spd
kts
Gust
kts
25/11:30pm 21.0 19.6 18.8 87 1.4 SE 24 32 13 17 1016.1 1014.9 20.6
25/11:00pm 21.3 20.5 19.2 88 1.3 ESE 22 33 12 18 1016.1 1014.9 20.6
25/10:30pm 21.3 21.5 19.4 89 1.2 E 17 26 9 14 1016.5 1015.3 20.6
25/10:00pm 21.4 21.0 19.3 88 1.3 ESE 20 30 11 16 1016.1 1014.9 20.6
25/09:30pm 21.3 21.7 19.9 92 0.9 ESE 17 22 9 12 1016.0 1014.8 20.6
25/09:15pm 21.4 21.5 20.0 92 0.9 ESE 19 28 10 15 1016.0 1014.8 20.6
25/09:00pm 21.6 21.2 20.2 92 0.9 ESE 22 32 12 17 1015.8 1014.6 20.6
25/08:59pm 21.5 21.5 20.1 92 0.9 ESE 20 32 11 17 1015.7 1014.5 20.6
25/08:45pm 21.9 22.8 20.9 94 0.7 S 17 24 9 13 1017.5 1016.3 18.2
25/08:30pm 21.8 22.4 21.1 96 0.5 ESE 19 26 10 14 1015.5 1014.3 18.2
25/08:00pm 21.8 22.4 21.1 96 0.5 ESE 19 32 10 17 1016.5 1015.3 17.4
25/07:30pm 21.6 21.8 21.3 98 0.2 SE 22 30 12 16 1014.6 1013.4 17.2
25/07:12pm 21.8 22.5 21.6 99 0.1 SE 20 30 11 16 1014.0 1012.8 17.2
25/07:00pm 21.3 19.5 21.1 99 0.1 SSE 32 52 17 28 1014.3 1013.1 17.2
25/06:57pm 20.8 18.2 20.6 99 0.1 SSE 35 52 19 28 1014.6 1013.4 17.2
25/06:56pm 20.7 17.6 20.5 99 0.1 S 37 52 20 28 1014.6 1013.4 17.2
25/06:49pm 19.5 14.0 19.0 97 0.3 W 46 76 25 41 1015.4 1014.2 15.4
25/06:46pm 19.2 14.0 18.4 95 0.5 NW 43 76 23 41 1016.9 1015.7 12.4
25/06:42pm 21.6 20.1 20.2 92 0.9 N 28 76 15 41 1016.3 1015.1 2.8
25/06:40pm 23.8 23.8 20.1 80 2.4 NNE 20 52 11 28 1015.7 1014.5 1.0
25/06:39pm 24.8 25.1 20.3 76 3.0 NE 19 35 10 19 1015.5 1014.3 0.6
25/06:30pm 25.9 24.9 18.8 65 4.6 ESE 22 35 12 19 1013.3 1012.1 0.4
25/06:00pm 28.2 26.2 17.4 52 6.9 ESE 24 35 13 19 1013.1 1011.9 0.2
25/05:30pm 29.0 26.7 17.5 49 7.3 ESE 26 39 14 21 1012.5 1011.3 0.2
25/05:00pm 29.3 27.5 17.8 50 7.4 SE 24 35 13 19 1011.7 1010.5 0.2
25/04:30pm 29.8 27.5 17.6 48 7.8 SE 26 37 14 20 1012.1 1010.9 0.2
25/04:00pm 30.3 28.7 18.4 49 7.7 ESE 24 37 13 20 1012.1 1010.9 0.2
25/03:30pm 30.8 29.6 18.5 47 8.0 ESE 22 35 12 19 1012.5 1011.3 0.2
25/03:00pm 31.2 30.8 18.9 48 8.1 ESE 19 30 10 16 1013.3 1012.1 0.2
25/02:30pm 30.8 30.9 19.2 50 7.6 E 17 26 9 14 1013.6 1012.4 0.2
25/02:00pm 30.1 29.5 18.5 49 7.5 E 19 30 10 16 1013.7 1012.5 0.2
25/01:30pm 30.3 29.8 19.0 50 7.4 E 20 30 11 16 1013.8 1012.6 0.2
25/01:00pm 28.4 27.5 19.1 57 6.1 ESE 22 32 12 17 1013.9 1012.7 0.2
25/12:30pm 28.0 27.6 19.0 58 5.8 ESE 19 26 10 14 1014.5 1013.2 0.2
25/12:00pm 27.3 26.9 18.9 60 5.4 ESE 19 28 10 15 1014.7 1013.5 0.2
25/11:30am 27.7 27.2 20.0 63 5.1 ESE 22 33 12 18 1014.5 1013.2 0.2
25/11:00am 27.6 26.2 18.9 59 5.6 SE 24 35 13 19 1014.9 1013.7 0.2
25/10:30am 26.3 25.3 19.7 67 4.3 SE 24 33 13 18 1015.1 1013.9 0.2
25/10:00am 25.3 24.5 19.2 69 3.9 ESE 22 30 12 16 1015.1 1013.9 0.2
25/09:30am 24.7 24.5 19.3 72 3.5 ESE 19 28 10 15 1015.2 1014.0 0.2
25/09:00am 23.7 23.3 19.4 77 2.8 ESE 20 30 11 16 1015.2 1014.0 13.8
25/08:30am 22.5 22.0 19.1 81 2.2 ESE 20 32 11 17 1015.1 1013.9 13.8
25/08:00am 21.7 21.2 18.7 83 1.9 ESE 19 26 10 14 1015.1 1013.9 13.8
25/07:30am 20.7 20.5 18.5 87 1.4 ESE 17 26 9 14 1014.8 1013.6 13.8
25/07:00am 19.6 19.3 18.3 92 0.8 SE 17 20 9 11 1014.8 1013.6 13.8
25/06:30am 19.1 19.0 17.9 93 0.7 ESE 15 20 8 11 1014.6 1013.4 13.8
25/06:00am 18.8 19.1 17.8 94 0.6 ESE 13 17 7 9 1014.1 1012.9 13.8
25/05:30am 18.9 18.4 17.7 93 0.7 ESE 17 24 9 13 1013.7 1012.5 13.8
25/05:08am 19.0 18.5 17.8 93 0.7 SE 17 22 9 12 1013.7 1012.5 13.8
25/05:00am 19.0 18.5 17.8 93 0.7 SE 17 22 9 12 1013.8 1012.6 13.8
25/04:50am 19.1 18.6 17.9 93 0.7 SE 17 24 9 13 1013.8 1012.6 13.8
25/04:30am 19.2 19.2 18.0 93 0.7 SE 15 22 8 12 1013.8 1012.6 13.8
25/04:00am 19.4 19.8 18.2 93 0.7 SE 13 15 7 8 1013.7 1012.5 13.8
25/03:30am 19.6 20.1 18.3 92 0.8 ESE 13 17 7 9 1013.7 1012.5 13.8
25/03:00am 19.6 20.0 18.1 91 0.9 ESE 13 19 7 10 1013.7 1012.5 13.8
25/02:43am 19.7 20.1 18.2 91 0.9 ESE 13 19 7 10 1013.6 1012.4 13.8
25/02:30am 19.8 20.3 18.3 91 0.9 ESE 13 19 7 10 1013.8 1012.6 13.8
25/02:00am 19.8 20.3 18.3 91 0.9 ESE 13 20 7 11 1013.5 1012.3 13.8
25/01:53am 19.8 19.9 18.3 91 0.9 SE 15 20 8 11 1013.6 1012.4 13.8
25/01:30am 19.9 20.4 18.4 91 0.9 SE 13 17 7 9 1013.5 1012.3 13.8
25/01:00am 20.2 19.4 18.5 90 1.1 SE 20 26 11 14 1013.4 1012.2 13.8
25/12:30am 20.2 20.1 18.7 91 0.9 SE 17 26 9 14 1014.1 1012.9 13.8
25/12:00am 20.4 20.0 18.9 91 0.9 ESE 19 28 10 15 1014.0 1012.8 13.8
 
Date/Time
WST
Temp
°C
App
Temp
°C
Dew
Point
°C
Rel
Hum
%
Delta-T
°C
Wind Press
QNH
hPa
Press
MSL
hPa
Rain since
9am
mm
Dir  Spd
km/h
Gust
km/h
Spd
kts
Gust
kts
24/11:30pm 20.5 20.8 18.8 90 1.1 ESE 15 20 8 11 1014.5 1013.2 13.6
24/11:00pm 20.7 20.7 19.0 90 1.1 ESE 17 24 9 13 1014.0 1012.8 13.6
24/10:30pm 20.7 20.7 19.0 90 1.1 ESE 17 22 9 12 1013.8 1012.6 13.6
24/10:00pm 20.6 19.9 18.7 89 1.2 ESE 20 28 11 15 1013.2 1012.0 13.6
24/09:30pm 20.6 19.6 18.9 90 1.1 ESE 22 32 12 17 1013.4 1012.2 13.6
24/09:00pm 21.2 20.1 18.6 85 1.6 ESE 22 33 12 18 1014.0 1012.8 13.6
24/08:30pm 21.4 19.6 18.8 85 1.6 ESE 26 37 14 20 1013.4 1012.2 13.6
24/08:00pm 21.9 19.2 18.5 81 2.2 SE 30 44 16 24 1013.4 1012.2 13.6
24/07:30pm 22.3 20.2 18.9 81 2.2 SE 28 37 15 20 1013.2 1012.0 13.6
24/07:00pm 22.9 21.6 19.1 79 2.4 SE 24 35 13 19 1012.8 1011.6 13.6
24/06:30pm 22.9 21.7 19.3 80 2.3 SE 24 33 13 18 1011.6 1010.4 13.6
24/06:00pm 22.5 21.3 19.3 82 2.1 ESE 24 39 13 21 1010.9 1009.7 13.4
24/05:58pm 22.5 22.2 19.5 83 1.9 ESE 20 32 11 17 1011.5 1010.3 13.4
24/05:30pm 23.4 23.2 19.3 78 2.6 SE 19 26 10 14 1013.5 1012.3 11.6
24/05:00pm 24.4 23.0 18.8 71 3.6 SSE 24 32 13 17 1011.8 1010.6 10.0
24/04:30pm 25.2 24.0 19.3 70 3.8 SSE 24 35 13 19 1011.6 1010.4 10.0
24/04:00pm 27.6 28.0 19.1 59 5.5 SE 15 20 8 11 1010.4 1009.1 10.0
24/03:30pm 28.2 28.0 19.4 59 5.8 SE 19 26 10 14 1011.1 1009.9 10.0
24/03:00pm 28.9 29.3 20.9 62 5.4 SE 20 30 11 16 1011.4 1010.2 10.0
24/02:30pm 28.2 28.6 21.0 65 4.8 SE 20 26 11 14 1011.5 1010.3 10.0
24/02:00pm 26.8 28.7 22.8 79 2.7 SE 17 24 9 13 1011.9 1010.7 9.8
24/01:30pm 23.3 24.0 21.2 88 1.4 ESE 19 26 10 14 1012.3 1011.1 9.8
24/01:02pm 22.8 22.8 20.9 89 1.2 NE 22 28 12 15 1013.1 1011.9 5.6
24/01:00pm 23.1 23.5 21.0 88 1.4 NE 20 28 11 15 1013.3 1012.1 5.2
24/12:41pm 23.9 24.2 20.4 81 2.3 ENE 19 24 10 13 1013.2 1012.0 3.0
24/12:30pm 25.7 25.2 18.6 65 4.6 NE 19 26 10 14 1013.6 1012.4 0.0
24/12:00pm 27.9 26.7 17.4 52 6.7 E 20 30 11 16 1012.9 1011.7 0.0
24/11:30am 28.1 26.1 17.3 52 6.8 ESE 24 35 13 19 1013.5 1012.3 0.0
24/11:00am 28.6 26.9 17.2 50 7.2 E 22 37 12 20 1014.3 1013.1 0.0
24/10:30am 26.5 24.0 17.0 56 6.0 E 26 37 14 20 1014.3 1013.1 0.0
24/10:00am 26.3 24.7 17.4 58 5.6 ESE 22 33 12 18 1014.8 1013.6 0.0
24/09:30am 24.7 21.7 16.9 62 4.9 E 28 39 15 21 1014.7 1013.5 0.0
24/09:00am 23.1 21.5 16.6 67 4.0 ESE 20 33 11 18 1014.9 1013.7 0.8
24/08:30am 23.1 20.9 16.9 68 3.8 ESE 24 33 13 18 1014.9 1013.7 0.8
24/08:00am 21.6 19.7 16.6 73 3.1 ESE 22 35 12 19 1014.9 1013.7 0.8
24/07:30am 20.9 18.8 16.3 75 2.8 ESE 22 33 12 18 1015.0 1013.8 0.8
24/07:00am 20.3 18.5 15.9 76 2.7 ESE 20 32 11 17 1014.9 1013.7 0.8
24/06:30am 19.8 18.0 15.9 78 2.3 ESE 20 30 11 16 1014.5 1013.2 0.8
24/06:00am 19.7 17.8 15.8 78 2.3 ESE 20 30 11 16 1014.1 1012.9 0.8
24/05:30am 19.8 18.1 15.7 77 2.5 ESE 19 30 10 16 1014.2 1013.0 0.8
24/05:00am 19.8 18.1 15.7 77 2.5 ESE 19 28 10 15 1014.1 1012.9 0.8
24/04:30am 19.8 17.5 15.7 77 2.5 ESE 22 32 12 17 1013.9 1012.7 0.8
24/04:00am 19.8 18.1 15.7 77 2.5 ESE 19 28 10 15 1013.7 1012.5 0.8
24/03:30am 19.8 17.9 15.7 77 2.5 ESE 20 28 11 15 1013.7 1012.5 0.8
24/03:00am 20.1 18.2 15.7 76 2.6 ESE 20 35 11 19 1014.0 1012.8 0.8
24/02:30am 20.2 16.8 15.8 76 2.6 ESE 28 35 15 19 1013.7 1012.5 0.8
24/02:00am 20.2 18.2 15.6 75 2.8 ESE 20 30 11 16 1014.1 1012.9 0.8
24/01:30am 20.5 17.8 15.5 73 3.0 ESE 24 33 13 18 1014.3 1013.1 0.8
24/01:00am 20.9 18.5 15.4 71 3.3 ESE 22 33 12 18 1014.3 1013.1 0.8
24/12:30am 21.2 17.5 15.1 68 3.6 ESE 28 43 15 23 1014.2 1013.0 0.8
24/12:00am 21.7 18.3 14.8 65 4.1 ESE 26 37 14 20 1014.3 1013.1 0.8
 
Date/Time
WST
Temp
°C
App
Temp
°C
Dew
Point
°C
Rel
Hum
%
Delta-T
°C
Wind Press
QNH
hPa
Press
MSL
hPa
Rain since
9am
mm
Dir  Spd
km/h
Gust
km/h
Spd
kts
Gust
kts
23/11:30pm 22.1 19.2 15.0 64 4.2 ESE 24 43 13 23 1014.2 1013.0 0.8
23/11:00pm 22.5 18.8 15.1 63 4.4 ESE 28 37 15 20 1014.3 1013.1 0.8
23/10:30pm 23.1 19.9 15.2 61 4.8 ESE 26 39 14 21 1013.9 1012.7 0.8
23/10:00pm 23.6 19.9 15.1 59 5.1 ESE 28 39 15 21 1013.9 1012.7 0.8
23/09:30pm 24.2 20.2 15.1 56 5.5 ESE 30 61 16 33 1013.7 1012.5 0.8
23/09:07pm 24.8 20.3 14.9 54 6.0 SE 32 50 17 27 1013.0 1011.8 0.8
23/09:00pm 25.2 21.1 14.9 52 6.2 SE 30 41 16 22 1013.0 1011.8 0.8
23/08:37pm 26.0 21.0 15.1 51 6.6 SE 35 56 19 30 1012.2 1011.0 0.8
23/08:30pm 26.3 21.3 15.0 49 6.9 SE 35 48 19 26 1012.2 1011.0 0.8
23/08:14pm 27.4 24.4 14.8 46 7.7 SSE 24 37 13 20 1012.1 1010.9 0.8
23/08:00pm 27.8 26.4 14.4 43 8.1 SE 15 19 8 10 1012.1 1010.9 0.8
23/07:30pm 28.2 26.3 14.1 42 8.5 SE 17 22 9 12 1011.6 1010.4 0.8
23/07:00pm 28.7 26.8 14.1 40 8.8 ESE 17 20 9 11 1011.4 1010.2 0.8
23/06:30pm 28.6 27.5 15.2 44 8.2 SSE 15 20 8 11 1011.1 1009.9 0.8
23/06:00pm 29.2 26.5 14.6 41 8.9 SSE 22 30 12 16 1010.8 1009.6 0.8
23/05:30pm 30.1 27.2 15.0 40 9.3 SSE 24 32 13 17 1010.5 1009.3 0.8
23/05:00pm 30.1 25.9 14.6 39 9.5 S 30 37 16 20 1010.1 1008.8 0.8
23/04:30pm 31.4 28.7 14.5 35 10.4 SSE 22 28 12 15 1010.5 1009.3 0.8
23/04:00pm 30.3 28.1 14.4 38 9.7 SSE 19 33 10 18 1010.6 1009.4 0.8
23/03:30pm 31.0 29.6 14.6 37 10.1 SE 15 28 8 15 1010.8 1009.6 0.8
23/03:00pm 30.6 28.4 14.3 37 10.0 ESE 19 28 10 15 1011.1 1009.9 0.8

Other formats

Comma delimited format used in spreadsheet applications
http://www.bom.gov.au/fwo/IDW60801/IDW60801.95625.axf

JavaScript Object Notation format (JSON) in row-major order
http://www.bom.gov.au/fwo/IDW60801/IDW60801.95625.json

Data quality

Most of these data are generated automatically and are frequently updated. Quality checks on data are not normally performed. It is possible for incorrect values to appear. Refer to information at About Latest Weather Observations and please check the disclaimer before using these data.